sensor_id;sensor_type;location;lat;lon;timestamp;pressure;altitude;pressure_sealevel;temperature;humidity
21431;BME280;10876;49.038;10.608;2023-03-25T00:02:20;97566.94;;;7.14;100.00
21431;BME280;10876;49.038;10.608;2023-03-25T00:04:50;97553.31;;;7.14;100.00
21431;BME280;10876;49.038;10.608;2023-03-25T00:07:18;97563.94;;;7.25;100.00
21431;BME280;10876;49.038;10.608;2023-03-25T00:09:46;97556.41;;;7.21;100.00
21431;BME280;10876;49.038;10.608;2023-03-25T00:12:14;97557.38;;;7.34;100.00
21431;BME280;10876;49.038;10.608;2023-03-25T00:14:43;97578.03;;;7.35;100.00
21431;BME280;10876;49.038;10.608;2023-03-25T00:17:20;97571.97;;;7.47;100.00
21431;BME280;10876;49.038;10.608;2023-03-25T00:19:47;97555.78;;;7.85;100.00
21431;BME280;10876;49.038;10.608;2023-03-25T00:22:16;97553.53;;;7.79;100.00
21431;BME280;10876;49.038;10.608;2023-03-25T00:24:46;97553.69;;;7.74;100.00
21431;BME280;10876;49.038;10.608;2023-03-25T00:27:14;97547.59;;;7.77;100.00
21431;BME280;10876;49.038;10.608;2023-03-25T00:29:44;97534.28;;;7.75;100.00
21431;BME280;10876;49.038;10.608;2023-03-25T00:32:11;97526.28;;;7.79;100.00
21431;BME280;10876;49.038;10.608;2023-03-25T00:34:40;97527.09;;;7.88;100.00
21431;BME280;10876;49.038;10.608;2023-03-25T00:37:12;97529.97;;;7.83;100.00
21431;BME280;10876;49.038;10.608;2023-03-25T00:39:43;97501.25;;;7.85;100.00
21431;BME280;10876;49.038;10.608;2023-03-25T00:42:11;97508.16;;;7.83;100.00
21431;BME280;10876;49.038;10.608;2023-03-25T00:44:41;97500.63;;;7.80;100.00
21431;BME280;10876;49.038;10.608;2023-03-25T00:47:08;97489.25;;;7.78;100.00
21431;BME280;10876;49.038;10.608;2023-03-25T00:49:36;97492.44;;;7.80;100.00
21431;BME280;10876;49.038;10.608;2023-03-25T00:52:04;97499.50;;;7.81;100.00
21431;BME280;10876;49.038;10.608;2023-03-25T00:54:32;97496.31;;;7.79;100.00
21431;BME280;10876;49.038;10.608;2023-03-25T00:56:59;97492.31;;;7.76;100.00
21431;BME280;10876;49.038;10.608;2023-03-25T00:59:26;97503.50;;;7.75;100.00
21431;BME280;10876;49.038;10.608;2023-03-25T01:01:53;97501.13;;;7.82;100.00
21431;BME280;10876;49.038;10.608;2023-03-25T01:04:22;97498.84;;;7.84;100.00
21431;BME280;10876;49.038;10.608;2023-03-25T01:06:49;97490.88;;;7.79;100.00
21431;BME280;10876;49.038;10.608;2023-03-25T01:09:18;97483.97;;;7.81;100.00
21431;BME280;10876;49.038;10.608;2023-03-25T01:11:48;97488.44;;;7.77;100.00
21431;BME280;10876;49.038;10.608;2023-03-25T01:14:16;97491.66;;;7.79;100.00
21431;BME280;10876;49.038;10.608;2023-03-25T01:16:44;97488.59;;;7.81;100.00
21431;BME280;10876;49.038;10.608;2023-03-25T01:19:11;97481.56;;;7.80;100.00
21431;BME280;10876;49.038;10.608;2023-03-25T01:21:39;97484.25;;;7.88;100.00
21431;BME280;10876;49.038;10.608;2023-03-25T01:24:07;97478.66;;;7.85;100.00
21431;BME280;10876;49.038;10.608;2023-03-25T01:26:39;97475.59;;;7.86;100.00
21431;BME280;10876;49.038;10.608;2023-03-25T01:29:08;97469.19;;;7.91;100.00
21431;BME280;10876;49.038;10.608;2023-03-25T01:31:35;97453.97;;;7.90;100.00
21431;BME280;10876;49.038;10.608;2023-03-25T01:34:02;97447.88;;;7.93;100.00
21431;BME280;10876;49.038;10.608;2023-03-25T01:36:29;97455.56;;;7.91;100.00
21431;BME280;10876;49.038;10.608;2023-03-25T01:38:57;97437.28;;;7.92;100.00
21431;BME280;10876;49.038;10.608;2023-03-25T01:41:26;97426.69;;;7.99;100.00
21431;BME280;10876;49.038;10.608;2023-03-25T01:44:02;97430.84;;;7.96;100.00
21431;BME280;10876;49.038;10.608;2023-03-25T01:46:30;97436.31;;;7.96;100.00
21431;BME280;10876;49.038;10.608;2023-03-25T01:48:58;97432.81;;;7.87;100.00
21431;BME280;10876;49.038;10.608;2023-03-25T01:51:29;97421.25;;;7.90;100.00
21431;BME280;10876;49.038;10.608;2023-03-25T01:53:58;97436.50;;;7.82;100.00
21431;BME280;10876;49.038;10.608;2023-03-25T01:56:30;97438.25;;;7.87;100.00
21431;BME280;10876;49.038;10.608;2023-03-25T01:58:58;97442.09;;;7.86;100.00
21431;BME280;10876;49.038;10.608;2023-03-25T02:01:28;97427.97;;;7.84;100.00
21431;BME280;10876;49.038;10.608;2023-03-25T02:03:56;97420.28;;;7.86;100.00
21431;BME280;10876;49.038;10.608;2023-03-25T02:06:30;97421.72;;;7.92;100.00
21431;BME280;10876;49.038;10.608;2023-03-25T02:09:01;97414.53;;;7.87;100.00
21431;BME280;10876;49.038;10.608;2023-03-25T02:11:29;97405.72;;;7.82;100.00
21431;BME280;10876;49.038;10.608;2023-03-25T02:13:59;97399.75;;;7.88;100.00
21431;BME280;10876;49.038;10.608;2023-03-25T02:16:34;97397.22;;;7.75;100.00
21431;BME280;10876;49.038;10.608;2023-03-25T02:19:20;97412.16;;;7.68;100.00
21431;BME280;10876;49.038;10.608;2023-03-25T02:22:15;97434.13;;;7.63;100.00
21431;BME280;10876;49.038;10.608;2023-03-25T02:25:03;97442.31;;;7.55;100.00
21431;BME280;10876;49.038;10.608;2023-03-25T02:27:46;97437.66;;;7.55;100.00
21431;BME280;10876;49.038;10.608;2023-03-25T02:33:41;97465.41;;;7.49;100.00
21431;BME280;10876;49.038;10.608;2023-03-25T02:39:10;97475.81;;;7.38;100.00
21431;BME280;10876;49.038;10.608;2023-03-25T02:41:44;97476.31;;;7.40;100.00
21431;BME280;10876;49.038;10.608;2023-03-25T02:44:14;97477.25;;;7.35;100.00
21431;BME280;10876;49.038;10.608;2023-03-25T02:46:46;97447.78;;;7.37;100.00
21431;BME280;10876;49.038;10.608;2023-03-25T02:49:18;97455.97;;;7.29;100.00
21431;BME280;10876;49.038;10.608;2023-03-25T02:51:52;97463.97;;;7.34;100.00
21431;BME280;10876;49.038;10.608;2023-03-25T02:54:23;97447.94;;;7.23;100.00
21431;BME280;10876;49.038;10.608;2023-03-25T02:56:53;97463.63;;;7.18;100.00
21431;BME280;10876;49.038;10.608;2023-03-25T02:59:22;97452.28;;;7.16;100.00
21431;BME280;10876;49.038;10.608;2023-03-25T03:02:07;97431.78;;;7.27;100.00
21431;BME280;10876;49.038;10.608;2023-03-25T03:04:44;97446.19;;;7.19;100.00
21431;BME280;10876;49.038;10.608;2023-03-25T03:07:16;97447.47;;;7.13;100.00
21431;BME280;10876;49.038;10.608;2023-03-25T03:09:53;97444.28;;;7.11;100.00
21431;BME280;10876;49.038;10.608;2023-03-25T03:12:44;97446.50;;;7.09;100.00
21431;BME280;10876;49.038;10.608;2023-03-25T03:15:23;97447.94;;;7.06;100.00
21431;BME280;10876;49.038;10.608;2023-03-25T03:18:03;97457.53;;;7.12;100.00
21431;BME280;10876;49.038;10.608;2023-03-25T03:20:37;97460.25;;;7.12;100.00
21431;BME280;10876;49.038;10.608;2023-03-25T03:23:09;97471.97;;;7.13;100.00
21431;BME280;10876;49.038;10.608;2023-03-25T03:25:45;97468.94;;;7.14;100.00
21431;BME280;10876;49.038;10.608;2023-03-25T03:28:17;97475.66;;;7.17;100.00
21431;BME280;10876;49.038;10.608;2023-03-25T03:30:52;97474.06;;;7.25;100.00
21431;BME280;10876;49.038;10.608;2023-03-25T03:33:24;97500.31;;;7.29;100.00
21431;BME280;10876;49.038;10.608;2023-03-25T03:35:55;97535.09;;;7.32;100.00
21431;BME280;10876;49.038;10.608;2023-03-25T03:38:29;97545.84;;;7.37;100.00
21431;BME280;10876;49.038;10.608;2023-03-25T03:41:04;97556.22;;;7.35;100.00
21431;BME280;10876;49.038;10.608;2023-03-25T03:43:35;97568.59;;;7.33;100.00
21431;BME280;10876;49.038;10.608;2023-03-25T03:46:06;97573.88;;;7.38;100.00
21431;BME280;10876;49.038;10.608;2023-03-25T03:48:39;97600.16;;;7.34;100.00
21431;BME280;10876;49.038;10.608;2023-03-25T03:51:10;97617.94;;;7.49;100.00
21431;BME280;10876;49.038;10.608;2023-03-25T03:53:48;97631.72;;;7.52;100.00
21431;BME280;10876;49.038;10.608;2023-03-25T03:56:22;97646.47;;;7.51;100.00
21431;BME280;10876;49.038;10.608;2023-03-25T03:58:53;97645.34;;;7.52;100.00
21431;BME280;10876;49.038;10.608;2023-03-25T04:01:29;97665.25;;;7.53;100.00
21431;BME280;10876;49.038;10.608;2023-03-25T04:04:02;97678.03;;;7.52;100.00
21431;BME280;10876;49.038;10.608;2023-03-25T04:06:34;97712.00;;;7.46;100.00
21431;BME280;10876;49.038;10.608;2023-03-25T04:09:10;97724.50;;;7.38;100.00
21431;BME280;10876;49.038;10.608;2023-03-25T04:11:47;97730.50;;;7.27;100.00
21431;BME280;10876;49.038;10.608;2023-03-25T04:14:16;97736.69;;;7.10;100.00
21431;BME280;10876;49.038;10.608;2023-03-25T04:16:43;97744.41;;;7.16;100.00
21431;BME280;10876;49.038;10.608;2023-03-25T04:19:11;97741.78;;;7.03;100.00
21431;BME280;10876;49.038;10.608;2023-03-25T04:21:43;97746.88;;;6.95;100.00
21431;BME280;10876;49.038;10.608;2023-03-25T04:24:10;97739.00;;;6.94;100.00
21431;BME280;10876;49.038;10.608;2023-03-25T04:26:41;97726.59;;;6.79;100.00
21431;BME280;10876;49.038;10.608;2023-03-25T04:29:10;97705.63;;;6.80;100.00
21431;BME280;10876;49.038;10.608;2023-03-25T04:31:41;97700.63;;;6.73;100.00
21431;BME280;10876;49.038;10.608;2023-03-25T04:34:11;97705.38;;;6.67;100.00
21431;BME280;10876;49.038;10.608;2023-03-25T04:36:39;97709.53;;;6.65;100.00
21431;BME280;10876;49.038;10.608;2023-03-25T04:39:08;97710.34;;;6.65;100.00
21431;BME280;10876;49.038;10.608;2023-03-25T04:41:36;97704.38;;;6.63;100.00
21431;BME280;10876;49.038;10.608;2023-03-25T04:44:04;97704.38;;;6.63;100.00
21431;BME280;10876;49.038;10.608;2023-03-25T04:46:35;97696.84;;;6.60;100.00
21431;BME280;10876;49.038;10.608;2023-03-25T04:49:02;97687.88;;;6.60;100.00
21431;BME280;10876;49.038;10.608;2023-03-25T04:51:31;97679.84;;;6.54;100.00
21431;BME280;10876;49.038;10.608;2023-03-25T04:53:58;97676.84;;;6.56;100.00
21431;BME280;10876;49.038;10.608;2023-03-25T04:56:25;97664.47;;;6.50;100.00
21431;BME280;10876;49.038;10.608;2023-03-25T04:58:52;97668.28;;;6.49;100.00
21431;BME280;10876;49.038;10.608;2023-03-25T05:01:22;97658.03;;;6.46;100.00
21431;BME280;10876;49.038;10.608;2023-03-25T05:03:57;97658.66;;;6.43;100.00
21431;BME280;10876;49.038;10.608;2023-03-25T05:06:30;97647.97;;;6.46;100.00
21431;BME280;10876;49.038;10.608;2023-03-25T05:08:58;97644.56;;;6.41;100.00
21431;BME280;10876;49.038;10.608;2023-03-25T05:11:26;97647.59;;;6.39;100.00
21431;BME280;10876;49.038;10.608;2023-03-25T05:13:53;97637.53;;;6.40;100.00
21431;BME280;10876;49.038;10.608;2023-03-25T05:16:21;97638.38;;;6.26;100.00
21431;BME280;10876;49.038;10.608;2023-03-25T05:18:48;97632.88;;;6.18;100.00
21431;BME280;10876;49.038;10.608;2023-03-25T05:21:16;97631.97;;;6.22;100.00
21431;BME280;10876;49.038;10.608;2023-03-25T05:23:43;97638.84;;;6.20;100.00
21431;BME280;10876;49.038;10.608;2023-03-25T05:26:11;97645.06;;;6.20;100.00
21431;BME280;10876;49.038;10.608;2023-03-25T05:28:38;97639.50;;;6.25;100.00
21431;BME280;10876;49.038;10.608;2023-03-25T05:31:05;97634.19;;;6.20;100.00
21431;BME280;10876;49.038;10.608;2023-03-25T05:33:34;97631.34;;;6.25;100.00
21431;BME280;10876;49.038;10.608;2023-03-25T05:36:08;97624.13;;;6.21;100.00
21431;BME280;10876;49.038;10.608;2023-03-25T05:38:36;97630.56;;;6.25;100.00
21431;BME280;10876;49.038;10.608;2023-03-25T05:41:06;97637.53;;;6.17;100.00
21431;BME280;10876;49.038;10.608;2023-03-25T05:43:35;97641.88;;;6.18;100.00
21431;BME280;10876;49.038;10.608;2023-03-25T05:46:03;97640.25;;;6.17;100.00
21431;BME280;10876;49.038;10.608;2023-03-25T05:48:30;97639.16;;;6.18;100.00
21431;BME280;10876;49.038;10.608;2023-03-25T05:50:58;97645.44;;;6.27;100.00
21431;BME280;10876;49.038;10.608;2023-03-25T05:53:25;97648.41;;;6.40;100.00
21431;BME280;10876;49.038;10.608;2023-03-25T05:55:56;97664.78;;;6.26;100.00
21431;BME280;10876;49.038;10.608;2023-03-25T05:58:23;97671.00;;;6.26;100.00
21431;BME280;10876;49.038;10.608;2023-03-25T06:00:50;97678.69;;;6.24;100.00
21431;BME280;10876;49.038;10.608;2023-03-25T06:03:18;97677.94;;;6.55;100.00
21431;BME280;10876;49.038;10.608;2023-03-25T06:05:46;97686.22;;;6.72;100.00
21431;BME280;10876;49.038;10.608;2023-03-25T06:08:13;97688.06;;;6.63;100.00
21431;BME280;10876;49.038;10.608;2023-03-25T06:10:41;97699.44;;;6.65;100.00
21431;BME280;10876;49.038;10.608;2023-03-25T06:13:11;97697.31;;;6.85;100.00
21431;BME280;10876;49.038;10.608;2023-03-25T06:15:39;97711.16;;;6.97;100.00
21431;BME280;10876;49.038;10.608;2023-03-25T06:18:06;97709.09;;;7.03;100.00
21431;BME280;10876;49.038;10.608;2023-03-25T06:20:34;97694.38;;;7.04;100.00
21431;BME280;10876;49.038;10.608;2023-03-25T06:23:01;97705.97;;;7.18;100.00
21431;BME280;10876;49.038;10.608;2023-03-25T06:25:28;97699.88;;;7.21;100.00
21431;BME280;10876;49.038;10.608;2023-03-25T06:27:55;97710.97;;;7.25;100.00
21431;BME280;10876;49.038;10.608;2023-03-25T06:30:29;97726.94;;;7.17;100.00
21431;BME280;10876;49.038;10.608;2023-03-25T06:32:56;97726.84;;;7.00;100.00
21431;BME280;10876;49.038;10.608;2023-03-25T06:35:45;97719.91;;;7.16;100.00
21431;BME280;10876;49.038;10.608;2023-03-25T06:38:14;97735.75;;;7.14;100.00
21431;BME280;10876;49.038;10.608;2023-03-25T06:40:41;97791.31;;;7.13;100.00
21431;BME280;10876;49.038;10.608;2023-03-25T06:43:08;97806.03;;;7.12;100.00
21431;BME280;10876;49.038;10.608;2023-03-25T06:45:36;97810.06;;;7.15;100.00
21431;BME280;10876;49.038;10.608;2023-03-25T06:48:03;97833.53;;;7.25;100.00
21431;BME280;10876;49.038;10.608;2023-03-25T06:50:31;97839.81;;;7.34;100.00
21431;BME280;10876;49.038;10.608;2023-03-25T06:52:58;97878.06;;;7.51;100.00
21431;BME280;10876;49.038;10.608;2023-03-25T06:55:25;97913.72;;;7.41;100.00
21431;BME280;10876;49.038;10.608;2023-03-25T06:57:53;97931.06;;;7.45;100.00
21431;BME280;10876;49.038;10.608;2023-03-25T07:00:24;97945.94;;;7.61;100.00
21431;BME280;10876;49.038;10.608;2023-03-25T07:02:54;98002.53;;;7.64;100.00
21431;BME280;10876;49.038;10.608;2023-03-25T07:05:22;98029.03;;;7.50;100.00
21431;BME280;10876;49.038;10.608;2023-03-25T07:07:49;98032.84;;;7.49;100.00
21431;BME280;10876;49.038;10.608;2023-03-25T07:10:16;98049.81;;;7.46;100.00
21431;BME280;10876;49.038;10.608;2023-03-25T07:12:43;98051.19;;;7.57;100.00
21431;BME280;10876;49.038;10.608;2023-03-25T07:15:10;98065.28;;;7.73;100.00
21431;BME280;10876;49.038;10.608;2023-03-25T07:17:37;98073.66;;;7.77;100.00
21431;BME280;10876;49.038;10.608;2023-03-25T07:20:07;98066.03;;;7.87;100.00
21431;BME280;10876;49.038;10.608;2023-03-25T07:22:34;98125.75;;;7.98;100.00
21431;BME280;10876;49.038;10.608;2023-03-25T07:25:02;98130.91;;;7.99;100.00
21431;BME280;10876;49.038;10.608;2023-03-25T07:27:28;98128.31;;;8.17;100.00
21431;BME280;10876;49.038;10.608;2023-03-25T07:29:56;98126.72;;;8.16;100.00
21431;BME280;10876;49.038;10.608;2023-03-25T07:32:23;98145.31;;;8.13;100.00
21431;BME280;10876;49.038;10.608;2023-03-25T07:34:50;98164.03;;;8.29;100.00
21431;BME280;10876;49.038;10.608;2023-03-25T07:37:18;98177.72;;;8.51;100.00
21431;BME280;10876;49.038;10.608;2023-03-25T07:39:45;98200.00;;;8.45;100.00
21431;BME280;10876;49.038;10.608;2023-03-25T07:42:12;98198.69;;;8.42;100.00
21431;BME280;10876;49.038;10.608;2023-03-25T07:44:39;98202.03;;;8.39;100.00
21431;BME280;10876;49.038;10.608;2023-03-25T07:47:06;98205.81;;;8.38;100.00
21431;BME280;10876;49.038;10.608;2023-03-25T07:49:33;98197.78;;;8.33;100.00
21431;BME280;10876;49.038;10.608;2023-03-25T07:52:00;98206.38;;;8.40;100.00
21431;BME280;10876;49.038;10.608;2023-03-25T07:54:29;98206.13;;;8.50;100.00
21431;BME280;10876;49.038;10.608;2023-03-25T07:56:56;98211.25;;;8.52;100.00
21431;BME280;10876;49.038;10.608;2023-03-25T07:59:23;98239.78;;;8.46;100.00
21431;BME280;10876;49.038;10.608;2023-03-25T08:01:50;98237.09;;;8.68;100.00
21431;BME280;10876;49.038;10.608;2023-03-25T08:04:17;98206.94;;;9.05;100.00
21431;BME280;10876;49.038;10.608;2023-03-25T08:06:44;98203.44;;;9.53;100.00
21431;BME280;10876;49.038;10.608;2023-03-25T08:09:12;98189.84;;;9.70;100.00
21431;BME280;10876;49.038;10.608;2023-03-25T08:11:40;98129.59;;;9.35;100.00
21431;BME280;10876;49.038;10.608;2023-03-25T08:14:07;98114.88;;;9.71;100.00
21431;BME280;10876;49.038;10.608;2023-03-25T08:16:34;98116.97;;;9.65;100.00
21431;BME280;10876;49.038;10.608;2023-03-25T08:19:01;98094.28;;;9.82;100.00
21431;BME280;10876;49.038;10.608;2023-03-25T08:21:28;98119.22;;;9.98;100.00
21431;BME280;10876;49.038;10.608;2023-03-25T08:23:56;98140.16;;;10.46;100.00
21431;BME280;10876;49.038;10.608;2023-03-25T08:26:28;98151.25;;;10.15;100.00
21431;BME280;10876;49.038;10.608;2023-03-25T08:28:57;98148.06;;;10.30;100.00
21431;BME280;10876;49.038;10.608;2023-03-25T08:31:24;98122.94;;;10.20;100.00
21431;BME280;10876;49.038;10.608;2023-03-25T08:33:55;98153.03;;;10.46;100.00
21431;BME280;10876;49.038;10.608;2023-03-25T08:36:22;98170.91;;;10.17;100.00
21431;BME280;10876;49.038;10.608;2023-03-25T08:38:49;98199.72;;;10.14;100.00
21431;BME280;10876;49.038;10.608;2023-03-25T08:41:17;98189.41;;;10.11;100.00
21431;BME280;10876;49.038;10.608;2023-03-25T08:43:44;98198.91;;;10.14;100.00
21431;BME280;10876;49.038;10.608;2023-03-25T08:46:12;98203.34;;;9.75;100.00
21431;BME280;10876;49.038;10.608;2023-03-25T08:48:39;98227.13;;;9.66;100.00
21431;BME280;10876;49.038;10.608;2023-03-25T08:51:08;98235.84;;;9.68;100.00
21431;BME280;10876;49.038;10.608;2023-03-25T08:53:54;98252.56;;;9.75;100.00
21431;BME280;10876;49.038;10.608;2023-03-25T08:56:21;98256.16;;;9.84;100.00
21431;BME280;10876;49.038;10.608;2023-03-25T08:58:48;98256.44;;;9.74;100.00
21431;BME280;10876;49.038;10.608;2023-03-25T09:01:16;98272.97;;;9.69;100.00
21431;BME280;10876;49.038;10.608;2023-03-25T09:03:46;98278.72;;;9.99;100.00
21431;BME280;10876;49.038;10.608;2023-03-25T09:06:13;98294.53;;;10.19;100.00
21431;BME280;10876;49.038;10.608;2023-03-25T09:08:40;98293.34;;;9.94;100.00
21431;BME280;10876;49.038;10.608;2023-03-25T09:11:10;98304.69;;;9.70;100.00
21431;BME280;10876;49.038;10.608;2023-03-25T09:13:37;98283.41;;;9.67;100.00
21431;BME280;10876;49.038;10.608;2023-03-25T09:16:05;98289.66;;;9.99;100.00
21431;BME280;10876;49.038;10.608;2023-03-25T09:18:34;98316.09;;;10.12;100.00
21431;BME280;10876;49.038;10.608;2023-03-25T09:21:02;98285.25;;;10.37;100.00
21431;BME280;10876;49.038;10.608;2023-03-25T09:23:29;98286.78;;;10.21;100.00
21431;BME280;10876;49.038;10.608;2023-03-25T09:26:01;98297.81;;;10.38;100.00
21431;BME280;10876;49.038;10.608;2023-03-25T09:28:28;98319.63;;;10.21;100.00
21431;BME280;10876;49.038;10.608;2023-03-25T09:30:55;98313.19;;;9.68;100.00
21431;BME280;10876;49.038;10.608;2023-03-25T09:33:22;98316.22;;;9.67;100.00
21431;BME280;10876;49.038;10.608;2023-03-25T09:35:53;98303.81;;;10.01;100.00
21431;BME280;10876;49.038;10.608;2023-03-25T09:38:22;98310.22;;;10.27;100.00
21431;BME280;10876;49.038;10.608;2023-03-25T09:40:50;98307.75;;;10.26;100.00
21431;BME280;10876;49.038;10.608;2023-03-25T09:43:23;98304.75;;;10.27;100.00
21431;BME280;10876;49.038;10.608;2023-03-25T09:45:56;98305.56;;;10.45;100.00
21431;BME280;10876;49.038;10.608;2023-03-25T09:48:29;98304.28;;;10.43;100.00
21431;BME280;10876;49.038;10.608;2023-03-25T09:51:04;98309.75;;;10.43;100.00
21431;BME280;10876;49.038;10.608;2023-03-25T09:53:37;98309.06;;;10.28;100.00
21431;BME280;10876;49.038;10.608;2023-03-25T09:56:09;98303.13;;;10.35;100.00
21431;BME280;10876;49.038;10.608;2023-03-25T09:58:41;98302.13;;;10.22;100.00
21431;BME280;10876;49.038;10.608;2023-03-25T10:01:22;98294.53;;;10.19;100.00
21431;BME280;10876;49.038;10.608;2023-03-25T10:04:06;98285.84;;;10.17;100.00
21431;BME280;10876;49.038;10.608;2023-03-25T10:06:40;98288.59;;;10.26;100.00
21431;BME280;10876;49.038;10.608;2023-03-25T10:09:30;98287.19;;;10.46;100.00
21431;BME280;10876;49.038;10.608;2023-03-25T10:12:04;98283.03;;;10.74;100.00
21431;BME280;10876;49.038;10.608;2023-03-25T10:14:43;98289.78;;;10.86;100.00
21431;BME280;10876;49.038;10.608;2023-03-25T10:17:25;98287.03;;;10.94;100.00
21431;BME280;10876;49.038;10.608;2023-03-25T10:20:00;98292.38;;;10.56;100.00
21431;BME280;10876;49.038;10.608;2023-03-25T10:22:35;98300.34;;;10.26;100.00
21431;BME280;10876;49.038;10.608;2023-03-25T10:25:13;98309.00;;;10.11;100.00
21431;BME280;10876;49.038;10.608;2023-03-25T10:27:43;98344.28;;;9.81;100.00
21431;BME280;10876;49.038;10.608;2023-03-25T10:30:15;98350.59;;;9.51;100.00
21431;BME280;10876;49.038;10.608;2023-03-25T10:32:45;98357.63;;;9.20;100.00
21431;BME280;10876;49.038;10.608;2023-03-25T10:35:16;98369.16;;;8.95;100.00
21431;BME280;10876;49.038;10.608;2023-03-25T10:37:48;98350.94;;;9.58;100.00
21431;BME280;10876;49.038;10.608;2023-03-25T10:40:22;98339.38;;;10.41;100.00
21431;BME280;10876;49.038;10.608;2023-03-25T10:43:04;98333.44;;;10.47;100.00
21431;BME280;10876;49.038;10.608;2023-03-25T10:45:39;98336.47;;;11.33;100.00
21431;BME280;10876;49.038;10.608;2023-03-25T10:48:12;98336.66;;;10.67;100.00
21431;BME280;10876;49.038;10.608;2023-03-25T10:50:42;98334.53;;;10.37;100.00
21431;BME280;10876;49.038;10.608;2023-03-25T10:53:18;98337.13;;;10.43;100.00
21431;BME280;10876;49.038;10.608;2023-03-25T10:55:47;98331.88;;;10.15;100.00
21431;BME280;10876;49.038;10.608;2023-03-25T10:58:18;98326.00;;;9.90;100.00
21431;BME280;10876;49.038;10.608;2023-03-25T11:00:46;98319.72;;;10.38;100.00
21431;BME280;10876;49.038;10.608;2023-03-25T11:03:16;98314.94;;;10.62;100.00
21431;BME280;10876;49.038;10.608;2023-03-25T11:05:47;98310.06;;;11.19;100.00
21431;BME280;10876;49.038;10.608;2023-03-25T11:08:17;98308.59;;;11.78;100.00
21431;BME280;10876;49.038;10.608;2023-03-25T11:10:47;98304.50;;;11.54;100.00
21431;BME280;10876;49.038;10.608;2023-03-25T11:13:16;98305.56;;;11.06;100.00
21431;BME280;10876;49.038;10.608;2023-03-25T11:15:46;98301.34;;;10.30;100.00
21431;BME280;10876;49.038;10.608;2023-03-25T11:18:20;98296.63;;;10.22;100.00
21431;BME280;10876;49.038;10.608;2023-03-25T11:20:49;98285.75;;;9.82;100.00
21431;BME280;10876;49.038;10.608;2023-03-25T11:23:23;98266.91;;;9.81;100.00
21431;BME280;10876;49.038;10.608;2023-03-25T11:25:53;98267.09;;;9.84;100.00
21431;BME280;10876;49.038;10.608;2023-03-25T11:28:25;98247.56;;;9.68;100.00
21431;BME280;10876;49.038;10.608;2023-03-25T11:31:09;98271.78;;;9.53;100.00
21431;BME280;10876;49.038;10.608;2023-03-25T11:33:37;98264.59;;;9.25;100.00
21431;BME280;10876;49.038;10.608;2023-03-25T11:36:23;98261.72;;;8.77;100.00
21431;BME280;10876;49.038;10.608;2023-03-25T11:38:57;98269.66;;;8.65;100.00
21431;BME280;10876;49.038;10.608;2023-03-25T11:41:28;98258.81;;;8.73;100.00
21431;BME280;10876;49.038;10.608;2023-03-25T11:43:56;98238.88;;;8.73;100.00
21431;BME280;10876;49.038;10.608;2023-03-25T11:46:23;98229.94;;;8.81;100.00
21431;BME280;10876;49.038;10.608;2023-03-25T11:48:51;98225.47;;;8.85;100.00
21431;BME280;10876;49.038;10.608;2023-03-25T11:51:20;98236.28;;;8.90;100.00
21431;BME280;10876;49.038;10.608;2023-03-25T11:53:53;98214.00;;;9.06;100.00
21431;BME280;10876;49.038;10.608;2023-03-25T11:56:25;98207.38;;;8.98;100.00
21431;BME280;10876;49.038;10.608;2023-03-25T11:58:57;98182.53;;;8.77;100.00
21431;BME280;10876;49.038;10.608;2023-03-25T12:01:27;98176.72;;;8.47;100.00
21431;BME280;10876;49.038;10.608;2023-03-25T12:04:12;98173.34;;;8.28;100.00
21431;BME280;10876;49.038;10.608;2023-03-25T12:06:52;98161.81;;;8.31;100.00
21431;BME280;10876;49.038;10.608;2023-03-25T12:09:23;98165.16;;;8.28;100.00
21431;BME280;10876;49.038;10.608;2023-03-25T12:12:00;98169.28;;;8.39;100.00
21431;BME280;10876;49.038;10.608;2023-03-25T12:14:37;98164.31;;;8.41;100.00
21431;BME280;10876;49.038;10.608;2023-03-25T12:17:17;98156.44;;;8.40;100.00
21431;BME280;10876;49.038;10.608;2023-03-25T12:19:55;98154.63;;;8.57;100.00
21431;BME280;10876;49.038;10.608;2023-03-25T12:22:35;98113.78;;;9.15;100.00
21431;BME280;10876;49.038;10.608;2023-03-25T12:25:30;98104.72;;;9.63;100.00
21431;BME280;10876;49.038;10.608;2023-03-25T12:28:25;98109.56;;;9.92;100.00
21431;BME280;10876;49.038;10.608;2023-03-25T12:31:00;98085.13;;;10.30;100.00
21431;BME280;10876;49.038;10.608;2023-03-25T12:33:44;98086.88;;;10.09;100.00
21431;BME280;10876;49.038;10.608;2023-03-25T12:36:24;98083.19;;;10.13;100.00
21431;BME280;10876;49.038;10.608;2023-03-25T12:39:00;98081.13;;;10.75;100.00
21431;BME280;10876;49.038;10.608;2023-03-25T12:41:38;98090.84;;;10.55;100.00
21431;BME280;10876;49.038;10.608;2023-03-25T12:44:11;98097.41;;;10.71;100.00
21431;BME280;10876;49.038;10.608;2023-03-25T12:46:59;98151.91;;;10.47;100.00
21431;BME280;10876;49.038;10.608;2023-03-25T12:49:44;98164.91;;;10.67;100.00
21431;BME280;10876;49.038;10.608;2023-03-25T12:52:18;98152.56;;;10.44;100.00
21431;BME280;10876;49.038;10.608;2023-03-25T12:55:22;98148.16;;;10.77;100.00
21431;BME280;10876;49.038;10.608;2023-03-25T12:58:03;98134.78;;;10.76;100.00
21431;BME280;10876;49.038;10.608;2023-03-25T13:00:43;98131.75;;;11.07;100.00
21431;BME280;10876;49.038;10.608;2023-03-25T13:03:31;98134.72;;;11.02;100.00
21431;BME280;10876;49.038;10.608;2023-03-25T13:06:06;98124.75;;;11.27;100.00
21431;BME280;10876;49.038;10.608;2023-03-25T13:08:40;98141.69;;;10.91;100.00
21431;BME280;10876;49.038;10.608;2023-03-25T13:11:16;98148.72;;;11.39;100.00
21431;BME280;10876;49.038;10.608;2023-03-25T13:13:48;98144.34;;;11.67;100.00
21431;BME280;10876;49.038;10.608;2023-03-25T13:16:19;98138.50;;;11.78;100.00